createdAt,value
2022-08-31T00:00:09.784Z,24.34
2022-08-31T00:02:55.047Z,24.35
2022-08-31T00:05:23.301Z,24.32
2022-08-31T00:07:51.770Z,24.29
2022-08-31T00:10:32.388Z,24.28
2022-08-31T00:13:03.138Z,24.29
2022-08-31T00:15:31.199Z,24.29
2022-08-31T00:17:59.360Z,24.27
2022-08-31T00:20:33.446Z,24.26
2022-08-31T00:23:02.881Z,24.23
2022-08-31T00:25:32.302Z,24.18
2022-08-31T00:28:00.595Z,24.14
2022-08-31T00:30:29.494Z,24.11
2022-08-31T00:32:58.088Z,24.05
2022-08-31T00:35:27.040Z,24.00
2022-08-31T00:37:55.072Z,23.96
2022-08-31T00:40:23.971Z,23.92
2022-08-31T00:42:53.452Z,23.91
2022-08-31T00:45:22.013Z,23.92
2022-08-31T00:47:50.126Z,23.89
2022-08-31T00:50:18.595Z,23.88
2022-08-31T00:52:49.949Z,23.88
2022-08-31T00:55:19.394Z,23.86
2022-08-31T00:57:49.690Z,23.84
2022-08-31T01:00:20.686Z,23.81
2022-08-31T01:02:49.065Z,23.79
2022-08-31T01:05:17.312Z,23.81
2022-08-31T01:07:47.667Z,23.80
2022-08-31T01:10:15.740Z,23.78
2022-08-31T01:12:43.919Z,23.74
2022-08-31T01:15:13.567Z,23.70
2022-08-31T01:17:43.066Z,23.68
2022-08-31T01:20:15.263Z,23.65
2022-08-31T01:22:55.683Z,23.63
2022-08-31T01:25:23.685Z,23.61
2022-08-31T01:28:04.136Z,23.57
2022-08-31T01:30:32.521Z,23.54
2022-08-31T01:33:03.124Z,23.49
2022-08-31T01:35:31.960Z,23.46
2022-08-31T01:38:01.390Z,23.39
2022-08-31T01:40:33.005Z,23.42
2022-08-31T01:43:01.196Z,23.41
2022-08-31T01:45:29.424Z,23.39
2022-08-31T01:47:57.482Z,23.37
2022-08-31T01:50:26.635Z,23.33
2022-08-31T01:52:54.707Z,23.31
2022-08-31T01:55:24.188Z,23.30
2022-08-31T01:57:52.338Z,23.28
2022-08-31T02:00:39.092Z,23.26
2022-08-31T02:03:08.053Z,23.25
2022-08-31T02:05:38.500Z,23.24
2022-08-31T02:08:07.752Z,23.24
2022-08-31T02:10:37.359Z,23.22
2022-08-31T02:13:05.487Z,23.22
2022-08-31T02:15:38.316Z,23.21
2022-08-31T02:18:06.477Z,23.18
2022-08-31T02:20:34.656Z,23.15
2022-08-31T02:23:03.498Z,23.14
2022-08-31T02:25:31.787Z,23.14
2022-08-31T02:28:03.907Z,23.14
2022-08-31T02:30:32.184Z,23.13
2022-08-31T02:33:00.468Z,23.13
2022-08-31T02:35:28.511Z,23.14
2022-08-31T02:37:56.885Z,23.14
2022-08-31T02:40:26.013Z,23.10
2022-08-31T02:42:54.401Z,23.09
2022-08-31T02:45:27.168Z,23.07
2022-08-31T02:48:01.713Z,23.05
2022-08-31T02:50:35.665Z,23.05
2022-08-31T02:53:06.216Z,23.02
2022-08-31T02:55:35.052Z,23.03
2022-08-31T02:58:03.104Z,23.01
2022-08-31T03:00:33.053Z,23.00
2022-08-31T03:03:01.247Z,22.98
2022-08-31T03:05:29.853Z,22.94
2022-08-31T03:07:57.942Z,22.90
2022-08-31T03:10:26.216Z,22.86
2022-08-31T03:12:54.481Z,22.83
2022-08-31T03:15:24.881Z,22.77
2022-08-31T03:17:54.300Z,22.73
2022-08-31T03:20:25.556Z,22.68
2022-08-31T03:22:54.691Z,22.65
2022-08-31T03:25:22.816Z,22.65
2022-08-31T03:27:53.254Z,22.63
2022-08-31T03:30:25.497Z,22.64
2022-08-31T03:33:08.264Z,22.66
2022-08-31T03:35:36.412Z,22.71
2022-08-31T03:38:05.468Z,22.71
2022-08-31T03:40:34.004Z,22.79
2022-08-31T03:43:03.484Z,22.83
2022-08-31T03:45:32.139Z,22.84
2022-08-31T03:48:00.693Z,22.83
2022-08-31T03:50:30.257Z,22.82
2022-08-31T03:53:04.227Z,22.82
2022-08-31T03:55:32.422Z,22.79
2022-08-31T03:58:01.059Z,22.77
2022-08-31T04:00:29.256Z,22.77
2022-08-31T04:03:03.242Z,22.75
2022-08-31T04:05:34.307Z,22.73
2022-08-31T04:08:17.741Z,22.69
2022-08-31T04:10:48.827Z,22.67
2022-08-31T04:13:28.006Z,22.68
2022-08-31T04:16:17.899Z,22.64
2022-08-31T04:18:58.071Z,22.63
2022-08-31T04:21:30.376Z,22.60
2022-08-31T04:23:58.626Z,22.60
2022-08-31T04:26:30.857Z,22.57
2022-08-31T04:29:01.830Z,22.56
2022-08-31T04:31:30.201Z,22.55
2022-08-31T04:34:00.212Z,22.54
2022-08-31T04:36:29.763Z,22.53
2022-08-31T04:38:58.843Z,22.52
2022-08-31T04:41:27.820Z,22.52
2022-08-31T04:43:57.228Z,22.49
2022-08-31T04:46:26.440Z,22.47
2022-08-31T04:48:56.274Z,22.47
2022-08-31T04:51:25.560Z,22.46
2022-08-31T04:53:55.201Z,22.44
2022-08-31T04:56:24.228Z,22.44
2022-08-31T04:58:55.565Z,22.41
2022-08-31T05:01:25.655Z,22.41
2022-08-31T05:04:05.904Z,22.37
2022-08-31T05:09:06.176Z,22.33
2022-08-31T05:11:34.289Z,22.31
2022-08-31T05:14:03.225Z,22.30
2022-08-31T05:16:31.573Z,22.30
2022-08-31T05:18:59.844Z,22.28
2022-08-31T05:21:29.220Z,22.28
2022-08-31T05:23:57.872Z,22.27
2022-08-31T05:26:28.338Z,22.27
2022-08-31T05:28:56.427Z,22.27
2022-08-31T05:31:26.779Z,22.23
2022-08-31T05:33:58.033Z,22.20
2022-08-31T05:36:36.440Z,22.22
2022-08-31T05:39:09.328Z,22.20
2022-08-31T05:41:39.101Z,22.18
2022-08-31T05:44:07.411Z,22.19
2022-08-31T05:46:37.035Z,22.19
2022-08-31T05:49:06.551Z,22.17
2022-08-31T05:54:07.243Z,22.19
2022-08-31T05:56:35.712Z,22.22
2022-08-31T05:59:05.541Z,22.24
2022-08-31T06:01:34.927Z,22.27
2022-08-31T06:04:12.052Z,22.27
2022-08-31T06:06:40.177Z,22.27
2022-08-31T06:09:08.617Z,22.31
2022-08-31T06:11:42.295Z,22.34
2022-08-31T06:14:14.921Z,22.38
2022-08-31T06:16:44.670Z,22.40
2022-08-31T06:19:15.347Z,22.44
2022-08-31T06:21:50.422Z,22.48
2022-08-31T06:24:24.175Z,22.50
2022-08-31T06:26:59.658Z,22.51
2022-08-31T06:29:35.143Z,22.53
2022-08-31T06:32:07.922Z,22.58
2022-08-31T06:34:38.176Z,22.61
2022-08-31T06:37:06.503Z,22.64
2022-08-31T06:39:45.069Z,22.68
2022-08-31T06:42:36.330Z,22.75
2022-08-31T06:45:06.100Z,22.79
2022-08-31T06:47:50.324Z,22.82
2022-08-31T06:50:22.181Z,22.85
2022-08-31T06:52:52.148Z,22.87
2022-08-31T06:55:23.088Z,22.89
2022-08-31T06:58:09.387Z,22.94
2022-08-31T07:00:59.302Z,23.00
2022-08-31T07:03:34.475Z,23.09
2022-08-31T07:06:06.249Z,23.15
2022-08-31T07:08:34.385Z,23.21
2022-08-31T07:11:04.109Z,23.26
2022-08-31T07:13:32.465Z,23.31
2022-08-31T07:16:06.505Z,23.36
2022-08-31T07:18:34.701Z,23.43
2022-08-31T07:21:11.200Z,23.46
2022-08-31T07:23:41.882Z,23.52
2022-08-31T07:26:15.165Z,23.55
2022-08-31T07:28:44.153Z,23.60
2022-08-31T07:31:17.566Z,23.65
2022-08-31T07:33:46.001Z,23.68
2022-08-31T07:36:15.462Z,23.69
2022-08-31T07:39:11.999Z,23.77
2022-08-31T07:42:02.877Z,23.80
2022-08-31T07:44:33.187Z,23.79
2022-08-31T07:47:02.801Z,23.79
2022-08-31T07:49:31.597Z,23.81
2022-08-31T07:52:19.800Z,23.82
2022-08-31T07:55:23.881Z,23.84
2022-08-31T07:58:00.215Z,23.88
2022-08-31T08:00:29.928Z,23.92
2022-08-31T08:03:07.746Z,23.94
2022-08-31T08:05:56.386Z,23.95
2022-08-31T08:08:43.805Z,23.89
2022-08-31T08:11:22.939Z,23.84
2022-08-31T08:14:19.994Z,23.81
2022-08-31T08:17:07.735Z,23.80
2022-08-31T08:19:48.991Z,23.84
2022-08-31T08:22:35.687Z,23.91
2022-08-31T08:25:26.098Z,23.95
2022-08-31T08:28:28.959Z,24.08
2022-08-31T08:31:01.372Z,24.23
2022-08-31T08:33:32.704Z,24.32
2022-08-31T08:36:08.113Z,24.41
2022-08-31T08:38:39.469Z,24.52
2022-08-31T08:41:11.677Z,24.63
2022-08-31T08:43:41.681Z,24.73
2022-08-31T08:46:33.336Z,24.82
2022-08-31T08:49:07.990Z,24.93
2022-08-31T08:51:39.697Z,25.05
2022-08-31T08:54:11.042Z,25.10
2022-08-31T08:56:49.349Z,25.18
2022-08-31T08:59:20.810Z,25.28
2022-08-31T09:01:51.008Z,25.37
2022-08-31T09:04:51.056Z,25.49
2022-08-31T09:07:51.160Z,25.52
2022-08-31T09:10:23.323Z,25.59
2022-08-31T09:12:53.893Z,25.67
2022-08-31T09:16:01.013Z,25.78
2022-08-31T09:18:41.124Z,25.79
2022-08-31T09:21:22.042Z,25.84
2022-08-31T09:24:02.024Z,25.88
2022-08-31T09:26:50.692Z,25.97
2022-08-31T09:29:35.210Z,26.05
2022-08-31T09:32:06.522Z,26.16
2022-08-31T09:34:37.293Z,26.28
2022-08-31T09:37:16.490Z,26.41
2022-08-31T09:39:48.756Z,26.40
2022-08-31T09:42:29.146Z,26.41
2022-08-31T09:44:59.085Z,26.50
2022-08-31T09:47:50.104Z,26.63
2022-08-31T09:50:31.513Z,26.87
2022-08-31T09:53:30.886Z,27.01
2022-08-31T09:56:16.314Z,27.11
2022-08-31T09:58:49.129Z,27.26
2022-08-31T10:01:20.768Z,27.39
2022-08-31T10:03:48.948Z,27.58
2022-08-31T10:06:45.793Z,27.73
2022-08-31T10:09:28.144Z,27.94
2022-08-31T10:11:59.565Z,28.05
2022-08-31T10:14:32.007Z,28.15
2022-08-31T10:17:02.918Z,28.17
2022-08-31T10:19:40.227Z,28.10
2022-08-31T10:22:11.594Z,28.02
2022-08-31T10:24:46.404Z,27.97
2022-08-31T10:27:17.524Z,27.96
2022-08-31T10:29:49.472Z,28.05
2022-08-31T10:32:24.904Z,28.18
2022-08-31T10:35:07.357Z,28.22
2022-08-31T10:37:51.098Z,28.07
2022-08-31T10:40:21.117Z,28.15
2022-08-31T10:42:59.462Z,28.33
2022-08-31T10:45:30.362Z,28.58
2022-08-31T10:47:58.636Z,28.78
2022-08-31T10:50:30.064Z,28.94
2022-08-31T10:53:05.931Z,29.21
2022-08-31T10:55:37.480Z,29.54
2022-08-31T10:58:12.886Z,29.85
2022-08-31T11:00:46.636Z,29.84
2022-08-31T11:03:18.070Z,29.88
2022-08-31T11:05:51.034Z,29.99
2022-08-31T11:08:37.903Z,30.28
2022-08-31T11:11:09.705Z,30.22
2022-08-31T11:14:00.527Z,30.14
2022-08-31T11:16:49.667Z,30.19
2022-08-31T11:19:38.595Z,30.25
2022-08-31T11:22:34.788Z,30.40
2022-08-31T11:25:30.020Z,30.21
2022-08-31T11:28:00.501Z,30.34
2022-08-31T11:30:31.770Z,30.42
2022-08-31T11:33:03.164Z,30.39
2022-08-31T11:35:57.454Z,30.34
2022-08-31T11:38:52.632Z,30.41
2022-08-31T11:41:39.208Z,30.55
2022-08-31T11:44:07.880Z,30.48
2022-08-31T11:47:08.644Z,30.52
2022-08-31T11:49:43.968Z,30.59
2022-08-31T11:52:43.471Z,30.75
2022-08-31T11:55:27.561Z,30.87
2022-08-31T11:58:49.771Z,30.81
2022-08-31T12:01:43.272Z,31.17
2022-08-31T12:04:46.226Z,31.25
2022-08-31T12:07:19.018Z,31.10
2022-08-31T12:10:17.612Z,31.16
2022-08-31T12:13:26.723Z,31.61
2022-08-31T12:16:23.677Z,32.01
2022-08-31T12:19:35.155Z,32.35
2022-08-31T12:22:25.999Z,32.61
2022-08-31T12:24:59.400Z,32.71
2022-08-31T12:27:32.249Z,32.74
2022-08-31T12:30:21.203Z,33.00
2022-08-31T12:32:56.162Z,32.99
2022-08-31T12:35:29.043Z,32.70
2022-08-31T12:38:02.768Z,32.32
2022-08-31T12:40:34.333Z,32.09
2022-08-31T12:43:06.337Z,31.95
2022-08-31T12:46:10.272Z,31.99
2022-08-31T12:48:53.993Z,31.81
2022-08-31T12:51:29.326Z,31.98
2022-08-31T12:54:28.430Z,32.12
2022-08-31T12:56:59.882Z,31.99
2022-08-31T12:59:59.425Z,32.18
2022-08-31T13:02:30.468Z,32.15
2022-08-31T13:04:58.881Z,32.26
2022-08-31T13:07:30.892Z,32.27
2022-08-31T13:10:08.994Z,32.34
2022-08-31T13:12:38.813Z,32.24
2022-08-31T13:15:14.355Z,32.32
2022-08-31T13:17:43.864Z,32.42
2022-08-31T13:20:19.396Z,32.51
2022-08-31T13:22:59.857Z,32.50
2022-08-31T13:25:35.931Z,32.51
2022-08-31T13:28:10.886Z,32.63
2022-08-31T13:30:55.015Z,32.69
2022-08-31T13:33:27.322Z,32.27
2022-08-31T13:36:04.233Z,31.88
2022-08-31T13:38:45.147Z,31.83
2022-08-31T13:41:18.944Z,31.68
2022-08-31T13:43:55.025Z,31.60
2022-08-31T13:46:43.382Z,31.89
2022-08-31T13:49:29.827Z,31.96
2022-08-31T13:52:01.456Z,32.34
2022-08-31T13:54:33.448Z,32.58
2022-08-31T13:57:21.975Z,32.65
2022-08-31T13:59:53.639Z,32.87
2022-08-31T14:02:37.654Z,33.19
2022-08-31T14:05:08.760Z,33.53
2022-08-31T14:07:56.168Z,33.83
2022-08-31T14:10:26.845Z,34.12
2022-08-31T14:12:57.046Z,34.45
2022-08-31T14:15:41.481Z,34.84
2022-08-31T14:18:26.909Z,35.23
2022-08-31T14:21:22.674Z,35.72
2022-08-31T14:23:53.529Z,36.23
2022-08-31T14:26:29.384Z,36.69
2022-08-31T14:29:04.653Z,37.18
2022-08-31T14:31:37.543Z,37.58
2022-08-31T14:34:26.421Z,37.67
2022-08-31T14:37:04.199Z,37.82
2022-08-31T14:39:36.767Z,37.88
2022-08-31T14:42:12.096Z,37.98
2022-08-31T14:44:43.288Z,38.14
2022-08-31T14:47:12.818Z,38.08
2022-08-31T14:49:45.565Z,38.12
2022-08-31T14:52:14.513Z,38.14
2022-08-31T14:54:43.067Z,38.12
2022-08-31T14:57:13.175Z,38.13
2022-08-31T14:59:52.296Z,38.14
2022-08-31T15:02:24.058Z,38.35
2022-08-31T15:04:52.389Z,38.58
2022-08-31T15:07:20.582Z,38.78
2022-08-31T15:09:50.303Z,38.95
2022-08-31T15:12:22.704Z,39.09
2022-08-31T15:18:26.171Z,38.92
2022-08-31T15:21:32.270Z,38.87
2022-08-31T15:24:15.077Z,38.99
2022-08-31T15:26:56.119Z,39.00
2022-08-31T15:30:14.845Z,38.95
2022-08-31T15:33:29.855Z,38.86
2022-08-31T15:36:13.068Z,38.78
2022-08-31T15:38:55.067Z,38.93
2022-08-31T15:42:06.652Z,39.11
2022-08-31T15:45:28.780Z,39.17
2022-08-31T15:48:45.926Z,39.04
2022-08-31T15:52:04.388Z,38.98
2022-08-31T15:54:43.246Z,38.85
2022-08-31T15:57:32.666Z,38.82
2022-08-31T16:00:48.491Z,38.83
2022-08-31T16:03:22.050Z,38.92
2022-08-31T16:06:28.419Z,38.93
2022-08-31T16:09:51.722Z,38.85
2022-08-31T16:13:11.261Z,38.90
2022-08-31T16:16:08.218Z,38.81
2022-08-31T16:19:34.028Z,38.70
2022-08-31T16:22:28.254Z,38.94
2022-08-31T16:25:48.942Z,39.12
2022-08-31T16:29:18.589Z,39.36
2022-08-31T16:31:59.357Z,39.53
